Time;durP1;ratioP1;P1;durP2;ratioP2;P2;SDS_P1;SDS_P2;PMS_P1;PMS_P2;Temp;Humidity;BMP_temperature;BMP_pressure;BME280_temperature;BME280_humidity;BME280_pressure;Samples;Min_cycle;Max_cycle;Signal;HPM_P1;HPM_P2
2022/05/22 00:02:13;;;;;;;13.60;3.67;;;11.10;99.90;;;;;;5053004;28;20021;-68
2022/05/22 00:04:39;;;;;;;18.15;3.58;;;11.10;99.90;;;;;;5055819;28;20104;-68
2022/05/22 00:07:06;;;;;;;16.63;3.40;;;11.10;99.90;;;;;;5057668;28;20025;-68
2022/05/22 00:09:33;;;;;;;19.00;3.60;;;11.20;99.90;;;;;;5057394;28;20090;-69
2022/05/22 00:11:58;;;;;;;8.85;2.80;;;11.20;99.90;;;;;;5057216;28;20122;-69
2022/05/22 00:14:28;;;;;;;15.13;2.42;;;11.20;99.90;;;;;;5056689;28;20088;-69
2022/05/22 00:16:54;;;;;;;17.10;3.15;;;11.20;99.90;;;;;;5056779;28;20370;-69
2022/05/22 00:19:22;;;;;;;19.33;3.60;;;11.10;99.90;;;;;;5056520;28;20025;-69
2022/05/22 00:21:50;;;;;;;18.52;3.22;;;11.10;99.90;;;;;;5056449;28;20025;-69
2022/05/22 00:24:18;;;;;;;34.88;3.88;;;11.10;99.90;;;;;;5056664;28;20032;-69
2022/05/22 00:26:44;;;;;;;18.67;3.53;;;11.20;99.90;;;;;;5056422;28;20090;-69
2022/05/22 00:29:10;;;;;;;30.77;5.22;;;11.20;99.90;;;;;;5056892;28;20480;-69
2022/05/22 00:31:36;;;;;;;24.88;4.88;;;11.30;99.90;;;;;;5056352;28;20107;-69
2022/05/22 00:34:02;;;;;;;34.08;5.43;;;11.30;99.90;;;;;;5056302;28;20106;-69
2022/05/22 00:36:27;;;;;;;28.92;3.85;;;11.30;99.90;;;;;;5056295;28;20462;-69
2022/05/22 00:38:53;;;;;;;33.10;4.65;;;11.40;99.90;;;;;;5056397;28;20025;-69
2022/05/22 00:41:19;;;;;;;25.70;4.68;;;11.40;99.90;;;;;;5056362;28;20495;-69
2022/05/22 00:43:50;;;;;;;27.42;3.83;;;11.40;99.90;;;;;;5056093;28;20444;-69
2022/05/22 00:46:18;;;;;;;31.30;5.05;;;11.40;99.90;;;;;;5056395;28;20060;-69
2022/05/22 00:48:49;;;;;;;28.48;4.22;;;11.40;99.90;;;;;;5055953;28;20111;-69
2022/05/22 00:51:31;;;;;;;27.45;4.88;;;11.40;99.90;;;;;;5056150;28;20448;-69
2022/05/22 00:54:06;;;;;;;48.05;5.10;;;11.40;99.90;;;;;;5056254;28;20029;-69
2022/05/22 00:56:37;;;;;;;35.58;4.50;;;11.40;99.90;;;;;;5037978;28;20021;-69
2022/05/22 00:59:09;;;;;;;34.72;5.15;;;11.40;99.90;;;;;;5055799;28;20078;-69
2022/05/22 01:01:35;;;;;;;35.47;4.80;;;11.40;99.90;;;;;;5056382;28;20060;-69
2022/05/22 01:04:05;;;;;;;26.17;4.88;;;11.40;99.90;;;;;;5055768;28;20392;-69
2022/05/22 01:06:31;;;;;;;32.15;4.18;;;11.40;99.90;;;;;;5055858;28;20071;-69
2022/05/22 01:08:56;;;;;;;37.40;4.78;;;11.40;99.90;;;;;;5055466;28;20029;-69
2022/05/22 01:11:32;;;;;;;29.98;5.10;;;11.30;99.90;;;;;;5055675;28;20370;-69
2022/05/22 01:14:25;;;;;;;24.25;4.18;;;11.40;99.90;;;;;;5055831;28;20358;-69
2022/05/22 01:16:51;;;;;;;27.57;4.57;;;11.30;99.90;;;;;;5052958;28;20036;-69
2022/05/22 01:19:23;;;;;;;52.22;5.30;;;11.20;99.90;;;;;;5055430;28;20342;-69
2022/05/22 01:22:02;;;;;;;45.25;5.22;;;11.20;99.90;;;;;;5055883;28;20078;-69
2022/05/22 01:24:28;;;;;;;34.00;5.22;;;11.20;99.90;;;;;;5055495;28;20029;-69
2022/05/22 01:26:56;;;;;;;29.00;4.45;;;11.30;99.90;;;;;;5055548;28;20425;-69
2022/05/22 01:29:22;;;;;;;22.50;4.93;;;11.20;99.90;;;;;;5055242;28;20064;-69
2022/05/22 01:31:47;;;;;;;41.67;4.97;;;11.30;99.90;;;;;;5055204;28;20057;-69
2022/05/22 01:34:13;;;;;;;30.33;5.03;;;11.30;99.90;;;;;;5055621;28;20029;-69
2022/05/22 01:36:39;;;;;;;31.85;4.45;;;11.30;99.90;;;;;;5055465;28;20025;-69
2022/05/22 01:39:05;;;;;;;36.17;5.15;;;11.30;99.90;;;;;;5055026;28;20108;-69
2022/05/22 01:41:30;;;;;;;39.45;5.70;;;11.30;99.90;;;;;;5055046;28;20029;-69
2022/05/22 01:43:56;;;;;;;45.88;5.47;;;11.30;99.90;;;;;;5054907;28;20043;-69
2022/05/22 01:46:22;;;;;;;24.85;4.72;;;11.30;99.90;;;;;;5055056;28;20039;-69
2022/05/22 01:48:47;;;;;;;33.40;4.97;;;11.30;99.90;;;;;;5055084;28;20017;-69
2022/05/22 01:51:13;;;;;;;37.63;4.50;;;11.30;99.90;;;;;;5055077;28;20025;-69
2022/05/22 01:53:38;;;;;;;31.50;4.82;;;11.30;99.90;;;;;;5055058;28;20025;-69
2022/05/22 01:56:04;;;;;;;22.38;4.03;;;11.40;99.90;;;;;;5054871;28;20033;-69
2022/05/22 01:58:30;;;;;;;21.70;4.38;;;11.30;99.90;;;;;;5054773;28;20477;-69
2022/05/22 02:00:56;;;;;;;27.13;4.30;;;11.30;99.90;;;;;;5054537;28;20086;-69
2022/05/22 02:03:21;;;;;;;27.27;5.07;;;11.30;99.90;;;;;;5054825;28;20049;-69
2022/05/22 02:05:47;;;;;;;38.55;4.82;;;11.20;99.90;;;;;;5054564;28;20056;-69
2022/05/22 02:08:19;;;;;;;29.77;4.65;;;11.30;99.90;;;;;;5054665;28;20111;-69
2022/05/22 02:10:45;;;;;;;24.48;4.10;;;11.20;99.90;;;;;;5054689;28;20031;-69
2022/05/22 02:13:11;;;;;;;20.30;4.60;;;11.20;99.90;;;;;;5054457;28;20025;-69
2022/05/22 02:15:37;;;;;;;31.67;4.03;;;11.20;99.90;;;;;;5054961;28;20476;-69
2022/05/22 02:18:03;;;;;;;24.80;3.90;;;11.10;99.90;;;;;;5054267;28;20063;-69
2022/05/22 02:20:29;;;;;;;33.42;4.75;;;11.20;99.90;;;;;;5054307;28;20106;-69
2022/05/22 02:22:56;;;;;;;27.70;5.15;;;11.20;99.90;;;;;;5054215;28;20060;-69
2022/05/22 02:25:31;;;;;;;24.30;4.60;;;11.20;99.90;;;;;;5054950;28;20453;-69
2022/05/22 02:27:58;;;;;;;34.53;5.43;;;11.10;99.90;;;;;;5053959;28;20021;-69
2022/05/22 02:30:26;;;;;;;36.38;4.85;;;11.10;99.90;;;;;;5055442;28;20021;-69
2022/05/22 02:32:52;;;;;;;29.50;4.75;;;11.00;99.90;;;;;;5054324;28;20511;-69
2022/05/22 02:35:18;;;;;;;25.33;4.38;;;11.10;99.90;;;;;;5054018;28;20021;-69
2022/05/22 02:37:52;;;;;;;34.00;4.88;;;11.00;99.90;;;;;;5053889;28;20056;-69
2022/05/22 02:40:18;;;;;;;;;;;11.00;99.90;;;;;;5054968;28;20519;-69
2022/05/22 02:42:49;;;;;;;31.85;4.32;;;11.00;99.90;;;;;;5036086;28;19997;-69
2022/05/22 02:45:16;;;;;;;31.25;5.22;;;11.00;99.90;;;;;;5053884;28;20071;-69
2022/05/22 02:47:42;;;;;;;36.17;6.80;;;11.00;99.90;;;;;;5053803;28;20013;-69
2022/05/22 02:50:10;;;;;;;36.22;4.85;;;10.90;99.90;;;;;;5053954;28;20071;-69
2022/05/22 02:52:36;;;;;;;32.83;5.05;;;10.90;99.90;;;;;;5053743;28;20427;-69
2022/05/22 02:55:02;;;;;;;28.05;4.70;;;10.90;99.90;;;;;;5054044;28;20031;-69
2022/05/22 02:57:28;;;;;;;43.67;5.45;;;10.90;99.90;;;;;;5053488;28;20120;-69
2022/05/22 02:59:54;;;;;;;30.67;6.25;;;10.90;99.90;;;;;;5054215;28;20168;-69
2022/05/22 03:02:20;;;;;;;20.75;3.70;;;10.80;99.90;;;;;;5054078;28;20063;-69
2022/05/22 03:04:47;;;;;;;32.38;5.00;;;10.80;99.90;;;;;;5053815;28;20048;-69
2022/05/22 03:07:15;;;;;;;22.30;3.95;;;10.90;99.90;;;;;;5053394;28;20018;-69
2022/05/22 03:09:42;;;;;;;33.67;6.15;;;10.90;99.90;;;;;;5053829;28;20047;-69
2022/05/22 03:12:10;;;;;;;37.03;4.22;;;10.90;99.90;;;;;;5053460;28;20017;-69
2022/05/22 03:14:36;;;;;;;37.75;5.43;;;10.90;99.90;;;;;;5053435;28;20108;-69
2022/05/22 03:17:02;;;;;;;36.70;5.57;;;10.90;99.90;;;;;;5053666;28;20076;-69
2022/05/22 03:19:27;;;;;;;36.45;5.68;;;10.90;99.90;;;;;;5035606;28;20021;-69
2022/05/22 03:21:53;;;;;;;23.02;4.60;;;10.90;99.90;;;;;;5053540;28;20029;-69
2022/05/22 03:24:18;;;;;;;24.70;4.72;;;10.90;99.90;;;;;;5053930;28;20031;-69
2022/05/22 03:26:44;;;;;;;29.45;4.85;;;10.90;99.90;;;;;;5053786;28;20025;-69
2022/05/22 03:29:11;;;;;;;30.65;5.38;;;10.90;99.90;;;;;;5053289;28;20036;-69
2022/05/22 03:31:37;;;;;;;34.60;4.55;;;10.90;99.90;;;;;;5053260;28;20389;-69
2022/05/22 03:34:03;;;;;;;38.17;5.28;;;10.90;99.90;;;;;;5035350;28;20029;-69
2022/05/22 03:36:29;;;;;;;31.40;4.78;;;10.90;99.90;;;;;;5035384;28;20021;-69
2022/05/22 03:38:55;;;;;;;22.45;4.22;;;10.90;99.90;;;;;;5054117;28;20032;-69
2022/05/22 03:41:20;;;;;;;28.38;5.15;;;10.90;99.90;;;;;;5057530;28;20029;-69
2022/05/22 03:43:46;;;;;;;25.00;6.30;;;10.90;99.90;;;;;;5057301;28;20029;-69
2022/05/22 03:46:12;;;;;;;27.25;4.30;;;10.90;99.90;;;;;;5057480;28;20132;-69
2022/05/22 03:48:38;;;;;;;26.67;5.70;;;10.90;99.90;;;;;;5057249;28;20518;-69
2022/05/22 03:51:03;;;;;;;26.05;4.40;;;10.90;99.90;;;;;;5057488;28;20021;-69
2022/05/22 03:53:29;;;;;;;25.05;3.83;;;10.90;99.90;;;;;;5047589;28;20470;-69
2022/05/22 03:55:54;;;;;;;28.50;4.78;;;11.00;99.90;;;;;;5057088;28;20155;-69
2022/05/22 03:58:20;;;;;;;29.45;4.95;;;10.90;99.90;;;;;;5057425;28;20025;-69
2022/05/22 04:00:46;;;;;;;30.70;5.03;;;11.00;99.90;;;;;;5056844;28;20564;-69
2022/05/22 04:03:11;;;;;;;28.83;5.47;;;11.00;99.90;;;;;;5056916;28;20067;-69
2022/05/22 04:05:37;;;;;;;25.33;3.58;;;11.00;99.90;;;;;;5050046;28;20044;-69
2022/05/22 04:08:03;;;;;;;29.17;3.88;;;11.00;99.90;;;;;;5036655;28;20057;-69
2022/05/22 04:10:28;;;;;;;24.27;5.03;;;11.00;99.90;;;;;;5036909;28;20022;-69
2022/05/22 04:12:54;;;;;;;21.92;3.97;;;11.00;99.90;;;;;;5051264;28;20363;-69
2022/05/22 04:15:21;;;;;;;25.27;4.93;;;11.00;99.90;;;;;;5056701;28;20092;-69
2022/05/22 04:17:48;;;;;;;30.15;5.28;;;11.00;99.90;;;;;;5056747;28;20021;-69
2022/05/22 04:20:16;;;;;;;20.52;4.65;;;11.10;99.90;;;;;;5056589;28;20051;-69
2022/05/22 04:25:26;;;;;;;20.05;4.10;;;11.10;99.90;;;;;;5056828;28;20052;-69
2022/05/22 04:27:52;;;;;;;29.15;4.75;;;11.20;99.90;;;;;;5056616;28;20040;-69
2022/05/22 04:30:19;;;;;;;14.88;3.63;;;11.20;99.90;;;;;;5056545;28;20021;-69
2022/05/22 04:32:47;;;;;;;26.85;4.75;;;11.30;99.90;;;;;;5056262;28;20432;-70
2022/05/22 04:35:12;;;;;;;24.52;4.32;;;11.40;99.90;;;;;;5056559;28;20036;-70
2022/05/22 04:37:38;;;;;;;22.33;4.07;;;11.40;99.90;;;;;;5056216;28;20469;-70
2022/05/22 04:40:05;;;;;;;28.75;4.20;;;11.50;99.90;;;;;;5042123;28;20029;-69
2022/05/22 04:42:33;;;;;;;26.95;4.97;;;11.50;99.90;;;;;;5036433;28;20029;-70
2022/05/22 04:44:59;;;;;;;23.77;4.70;;;11.50;99.90;;;;;;5036276;28;20020;-70
2022/05/22 04:47:24;;;;;;;27.20;5.07;;;11.50;99.90;;;;;;5036653;28;20026;-70
2022/05/22 04:49:50;;;;;;;22.05;4.88;;;11.60;99.90;;;;;;5035790;28;20029;-70
2022/05/22 04:52:16;;;;;;;30.75;4.47;;;11.60;99.90;;;;;;5019031;28;20045;-70
2022/05/22 04:54:42;;;;;;;26.13;4.80;;;11.70;99.90;;;;;;5037289;28;20026;-69
2022/05/22 04:57:07;;;;;;;24.85;5.40;;;11.70;99.90;;;;;;5037092;28;20036;-69
2022/05/22 04:59:33;;;;;;;33.95;5.75;;;11.70;99.90;;;;;;5035936;28;20068;-69
2022/05/22 05:01:58;;;;;;;27.35;3.45;;;11.80;99.90;;;;;;5035809;28;20481;-69
2022/05/22 05:04:24;;;;;;;31.63;5.43;;;11.80;99.90;;;;;;5036091;28;20025;-69
2022/05/22 05:06:52;;;;;;;37.75;4.97;;;11.80;99.90;;;;;;5036134;28;20029;-69
2022/05/22 05:09:18;;;;;;;32.65;5.90;;;11.80;99.90;;;;;;5035608;28;20103;-69
2022/05/22 05:11:45;;;;;;;24.13;5.30;;;11.80;99.90;;;;;;5036081;28;20071;-69
2022/05/22 05:14:10;;;;;;;30.90;4.85;;;11.80;99.90;;;;;;5035616;28;20513;-69
2022/05/22 05:16:36;;;;;;;26.08;4.82;;;11.80;99.90;;;;;;5035891;28;20501;-69
2022/05/22 05:19:02;;;;;;;35.33;5.45;;;11.80;99.90;;;;;;5035863;28;20068;-69
2022/05/22 05:21:28;;;;;;;20.88;4.60;;;11.80;99.90;;;;;;5035522;28;20065;-69
2022/05/22 05:23:55;;;;;;;23.60;5.53;;;11.80;99.90;;;;;;5035350;28;20080;-69
2022/05/22 05:26:22;;;;;;;29.13;7.80;;;11.80;99.90;;;;;;5035701;28;20516;-69
2022/05/22 05:28:48;;;;;;;28.83;7.18;;;11.80;99.90;;;;;;5035916;28;20030;-69
2022/05/22 05:31:14;;;;;;;39.33;7.80;;;11.80;99.90;;;;;;5035582;28;20037;-69
2022/05/22 05:33:39;;;;;;;28.38;6.07;;;11.80;99.90;;;;;;5035331;28;20079;-69
2022/05/22 05:36:10;;;;;;;35.30;5.78;;;11.80;99.90;;;;;;5035292;28;20025;-69
2022/05/22 05:38:36;;;;;;;26.23;4.53;;;11.90;99.90;;;;;;5035157;28;20034;-69
2022/05/22 05:41:02;;;;;;;29.30;4.82;;;11.90;99.90;;;;;;5035535;28;20052;-69
2022/05/22 05:43:27;;;;;;;17.52;4.00;;;11.90;99.90;;;;;;5035686;28;20022;-69
2022/05/22 05:45:53;;;;;;;22.33;4.13;;;12.00;99.90;;;;;;5035302;28;20026;-69
2022/05/22 05:48:19;;;;;;;30.05;4.72;;;12.10;99.90;;;;;;5035124;28;20026;-69
2022/05/22 05:50:44;;;;;;;21.55;4.68;;;12.10;99.90;;;;;;5035465;28;20028;-69
2022/05/22 05:53:10;;;;;;;31.55;6.47;;;12.20;99.90;;;;;;5033685;28;20024;-69
2022/05/22 05:55:35;;;;;;;28.50;5.30;;;12.20;99.90;;;;;;5034929;28;20032;-69
2022/05/22 05:58:03;;;;;;;20.02;4.03;;;12.20;99.90;;;;;;5034738;28;20049;-69
2022/05/22 06:00:29;;;;;;;31.13;4.15;;;12.30;99.90;;;;;;5034663;28;20028;-69
2022/05/22 06:02:55;;;;;;;26.60;4.65;;;12.30;99.90;;;;;;5034224;28;20052;-69
2022/05/22 06:05:21;;;;;;;23.13;3.63;;;12.40;99.90;;;;;;5035033;28;20474;-69
2022/05/22 06:07:51;;;;;;;24.05;5.40;;;12.40;99.90;;;;;;5034522;28;20032;-69
2022/05/22 06:10:18;;;;;;;31.85;4.35;;;12.60;99.90;;;;;;5035207;28;20022;-69
2022/05/22 06:12:44;;;;;;;22.88;3.50;;;12.60;99.90;;;;;;5034846;28;20040;-70
2022/05/22 06:15:10;;;;;;;18.08;4.13;;;12.60;99.90;;;;;;5034648;28;20026;-70
2022/05/22 06:17:39;;;;;;;26.90;4.88;;;12.60;99.90;;;;;;5034703;28;20033;-70
2022/05/22 06:20:07;;;;;;;32.78;4.18;;;12.60;99.90;;;;;;5034828;28;20405;-71
2022/05/22 06:22:34;;;;;;;16.92;3.90;;;12.70;99.90;;;;;;5034301;28;20053;-70
2022/05/22 06:25:02;;;;;;;19.95;4.18;;;12.80;99.90;;;;;;5034380;28;20022;-71
2022/05/22 06:27:28;;;;;;;22.42;3.45;;;12.90;99.90;;;;;;5034179;28;20377;-71
2022/05/22 06:29:53;;;;;;;15.88;3.95;;;12.90;99.90;;;;;;5034158;28;20025;-71
2022/05/22 06:32:20;;;;;;;19.63;3.30;;;12.90;99.90;;;;;;5034133;28;20477;-71
2022/05/22 06:34:47;;;;;;;23.05;3.65;;;12.90;99.90;;;;;;5034086;28;20026;-71
2022/05/22 06:37:16;;;;;;;24.70;4.05;;;13.00;99.90;;;;;;5034126;28;20113;-71
2022/05/22 06:39:51;;;;;;;19.27;3.05;;;12.90;99.90;;;;;;5034139;28;20025;-71
2022/05/22 06:42:34;;;;;;;22.38;7.22;;;13.00;99.90;;;;;;5034287;28;20092;-71
2022/05/22 06:45:03;;;;;;;23.60;4.03;;;13.00;99.90;;;;;;5034241;28;20022;-70
2022/05/22 06:47:30;;;;;;;17.75;4.35;;;13.00;99.90;;;;;;5033935;28;20024;-71
2022/05/22 06:49:57;;;;;;;38.30;7.93;;;13.00;99.90;;;;;;5033994;28;20064;-71
2022/05/22 06:52:23;;;;;;;27.88;6.20;;;13.10;99.90;;;;;;5033989;28;20048;-71
2022/05/22 06:54:49;;;;;;;37.70;7.40;;;13.10;99.90;;;;;;5033888;28;20554;-71
2022/05/22 06:57:17;;;;;;;26.92;4.63;;;13.20;99.90;;;;;;5033883;28;20029;-71
2022/05/22 06:59:44;;;;;;;13.80;3.40;;;13.30;99.90;;;;;;5033943;28;20032;-71
2022/05/22 07:02:10;;;;;;;28.70;6.68;;;13.20;99.90;;;;;;5033644;28;20079;-71
2022/05/22 07:04:36;;;;;;;22.50;6.00;;;13.20;99.90;;;;;;5033758;28;20025;-71
2022/05/22 07:07:01;;;;;;;21.10;4.53;;;13.30;99.90;;;;;;5033622;28;20489;-71
2022/05/22 07:09:27;;;;;;;23.35;4.53;;;13.40;99.90;;;;;;5015825;28;20033;-71
2022/05/22 07:11:54;;;;;;;21.40;5.22;;;13.40;99.90;;;;;;5033819;28;20554;-71
2022/05/22 07:14:21;;;;;;;22.80;4.90;;;13.40;99.90;;;;;;5033494;28;20147;-71
2022/05/22 07:16:46;;;;;;;22.30;4.30;;;13.50;99.90;;;;;;5034010;28;20099;-71
2022/05/22 07:19:12;;;;;;;21.98;4.00;;;13.60;99.90;;;;;;5033812;28;20510;-71
2022/05/22 07:21:38;;;;;;;27.42;5.90;;;13.70;99.90;;;;;;5033598;28;20033;-71
2022/05/22 07:24:04;;;;;;;17.65;3.67;;;13.70;99.90;;;;;;5033701;28;20025;-71
2022/05/22 07:26:31;;;;;;;28.08;6.30;;;13.70;99.90;;;;;;5033421;28;20021;-71
2022/05/22 07:29:01;;;;;;;34.67;5.90;;;13.90;99.90;;;;;;5033343;28;20030;-71
2022/05/22 07:31:27;;;;;;;25.00;4.57;;;14.00;99.90;;;;;;5033623;28;20027;-71
2022/05/22 07:33:53;;;;;;;21.20;5.18;;;14.00;99.90;;;;;;5033298;28;20031;-71
2022/05/22 07:36:19;;;;;;;22.98;3.97;;;14.10;99.90;;;;;;5033378;28;20456;-71
2022/05/22 07:38:46;;;;;;;21.20;3.92;;;14.30;99.90;;;;;;5033186;28;20033;-71
2022/05/22 07:41:12;;;;;;;21.13;5.07;;;14.20;99.90;;;;;;5015556;28;20033;-72
2022/05/22 07:43:39;;;;;;;32.85;8.05;;;14.20;99.90;;;;;;5033321;28;20029;-71
2022/05/22 07:46:05;;;;;;;24.90;6.22;;;14.30;99.90;;;;;;5033209;28;20501;-71
2022/05/22 07:48:31;;;;;;;33.35;9.60;;;14.30;99.90;;;;;;5032917;28;20442;-71
2022/05/22 07:50:59;;;;;;;17.52;5.53;;;14.20;99.90;;;;;;5033437;28;20109;-71
2022/05/22 07:53:26;;;;;;;30.88;9.98;;;14.30;99.90;;;;;;5033042;28;20029;-71
2022/05/22 07:55:52;;;;;;;23.00;5.32;;;14.30;99.90;;;;;;5033327;28;20030;-71
2022/05/22 07:58:19;;;;;;;39.42;9.48;;;14.40;99.90;;;;;;5033317;28;20474;-71
2022/05/22 08:00:44;;;;;;;26.10;6.93;;;14.50;99.90;;;;;;5033287;28;20486;-71
2022/05/22 08:03:13;;;;;;;16.40;3.65;;;14.70;99.90;;;;;;5033041;28;20097;-71
2022/05/22 08:05:38;;;;;;;21.73;2.80;;;14.70;99.90;;;;;;5033268;28;20029;-71
2022/05/22 08:08:05;;;;;;;21.83;6.65;;;14.80;99.90;;;;;;5033038;28;20025;-71
2022/05/22 08:10:31;;;;;;;35.90;8.82;;;15.00;99.90;;;;;;5033005;28;20014;-71
2022/05/22 08:12:57;;;;;;;26.55;4.38;;;15.20;99.90;;;;;;5033167;28;20492;-71
2022/05/22 08:15:24;;;;;;;44.17;9.93;;;15.40;99.90;;;;;;5032991;28;20025;-71
2022/05/22 08:17:50;;;;;;;43.45;11.13;;;15.30;99.90;;;;;;5032800;28;20197;-71
2022/05/22 08:20:19;;;;;;;47.53;11.27;;;15.30;99.90;;;;;;5032891;28;20542;-71
2022/05/22 08:22:46;;;;;;;37.50;8.77;;;15.30;99.90;;;;;;5032700;28;20030;-71
2022/05/22 08:25:17;;;;;;;22.73;4.70;;;15.50;99.90;;;;;;5034090;28;20024;-72
2022/05/22 08:27:43;;;;;;;21.63;5.20;;;15.40;99.90;;;;;;5036466;28;20029;-71
2022/05/22 08:30:11;;;;;;;21.55;3.70;;;15.10;99.90;;;;;;5036707;28;20072;-72
2022/05/22 08:32:38;;;;;;;22.05;3.90;;;15.00;99.90;;;;;;5036368;28;20032;-72
2022/05/22 08:35:06;;;;;;;26.77;4.07;;;14.80;99.90;;;;;;5036370;28;20037;-71
2022/05/22 08:37:33;;;;;;;20.15;3.50;;;14.80;99.90;;;;;;5018873;28;20025;-72
2022/05/22 08:39:59;;;;;;;24.38;7.15;;;14.90;99.90;;;;;;5036528;28;20025;-72
2022/05/22 08:42:35;;;;;;;18.02;4.05;;;14.90;99.90;;;;;;5036691;28;20059;-72
2022/05/22 08:45:05;;;;;;;32.67;5.55;;;15.30;99.90;;;;;;5036332;28;20021;-71
2022/05/22 08:47:56;;;;;;;21.55;4.82;;;15.90;99.90;;;;;;5036164;28;20026;-71
2022/05/22 08:50:23;;;;;;;22.88;5.53;;;16.20;99.90;;;;;;5036125;28;20021;-72
2022/05/22 08:53:00;;;;;;;16.90;4.72;;;16.30;99.90;;;;;;5034789;28;20053;-70
2022/05/22 08:58:56;;;;;;;16.92;3.63;;;16.30;99.90;;;;;;5036056;28;20397;-70
2022/05/22 09:01:19;;;;;;;15.88;3.00;;;17.10;99.90;;;;;;5035989;28;20413;-69
2022/05/22 09:04:00;;;;;;;11.82;2.65;;;17.70;99.90;;;;;;5036037;28;20435;-70
2022/05/22 09:07:05;;;;;;;18.58;4.55;;;17.90;99.90;;;;;;5035786;28;20029;-70
2022/05/22 09:09:34;;;;;;;13.63;2.75;;;17.80;99.90;;;;;;5014062;28;20076;-71
2022/05/22 09:12:26;;;;;;;21.27;5.07;;;17.50;99.90;;;;;;5035648;28;20080;-70
2022/05/22 09:15:19;;;;;;;13.90;3.08;;;16.70;99.90;;;;;;5007615;28;20099;-70
2022/05/22 09:18:23;;;;;;;21.50;3.83;;;16.20;99.90;;;;;;5035636;28;20029;-70
2022/05/22 09:21:06;;;;;;;11.68;3.00;;;16.10;99.90;;;;;;5035586;28;20049;-70
2022/05/22 09:23:54;;;;;;;20.45;3.30;;;16.30;99.90;;;;;;5035713;28;20068;-70
2022/05/22 09:26:41;;;;;;;8.77;2.83;;;16.50;99.90;;;;;;5035359;28;20075;-70
2022/05/22 09:29:30;;;;;;;14.30;2.75;;;16.60;99.90;;;;;;5035275;28;20036;-70
2022/05/22 09:32:28;;;;;;;8.68;2.22;;;16.60;99.90;;;;;;5017487;28;20091;-71
2022/05/22 09:35:19;;;;;;;14.50;2.70;;;16.90;99.90;;;;;;5007019;28;20037;-70
2022/05/22 09:38:18;;;;;;;14.82;2.80;;;16.70;99.90;;;;;;5033878;28;20492;-70
2022/05/22 09:40:46;;;;;;;10.98;2.20;;;16.40;99.90;;;;;;5035365;28;20385;-70
2022/05/22 09:43:32;;;;;;;15.00;3.08;;;16.20;99.90;;;;;;5035737;28;20048;-70
2022/05/22 09:46:25;;;;;;;12.52;2.60;;;16.40;99.90;;;;;;5034814;28;20067;-71
2022/05/22 09:48:52;;;;;;;19.25;3.03;;;17.00;99.90;;;;;;5035119;28;20100;-71
2022/05/22 09:51:44;;;;;;;11.85;2.60;;;17.40;99.90;;;;;;5034986;28;20032;-71
2022/05/22 09:54:20;;;;;;;14.73;2.88;;;17.70;99.90;;;;;;5035493;28;20029;-71
2022/05/22 09:56:51;;;;;;;8.18;2.25;;;17.90;99.90;;;;;;5035279;28;20540;-71
2022/05/22 09:59:33;;;;;;;9.52;3.28;;;17.70;99.90;;;;;;5034596;28;20121;-71
2022/05/22 10:02:04;;;;;;;12.05;2.13;;;17.70;99.90;;;;;;5035073;28;20032;-70
2022/05/22 10:04:52;;;;;;;9.10;2.15;;;17.40;99.90;;;;;;5016863;28;20060;-71
2022/05/22 10:07:26;;;;;;;13.75;2.28;;;17.60;99.90;;;;;;5034484;28;20052;-70
2022/05/22 10:10:10;;;;;;;12.60;2.60;;;18.00;99.90;;;;;;5034335;28;20466;-70
2022/05/22 10:12:39;;;;;;;16.85;2.35;;;18.10;99.90;;;;;;5034393;28;20405;-71
2022/05/22 10:15:40;;;;;;;15.50;2.75;;;18.30;99.90;;;;;;5016578;28;20488;-71
2022/05/22 10:18:24;;;;;;;7.90;1.83;;;18.90;99.90;;;;;;5031414;28;20052;-71
2022/05/22 10:20:55;;;;;;;;;;;18.60;99.90;;;;;;5034625;28;20366;-71
2022/05/22 10:23:53;;;;;;;10.75;2.33;;;18.20;99.90;;;;;;5034535;28;19912;-71
2022/05/22 10:26:24;;;;;;;11.90;2.40;;;18.40;99.90;;;;;;5034799;28;20384;-71
2022/05/22 10:28:59;;;;;;;14.15;2.85;;;18.60;99.90;;;;;;5034300;28;20018;-71
2022/05/22 10:31:50;;;;;;;9.75;2.65;;;18.30;99.90;;;;;;5034407;28;20032;-71
2022/05/22 10:34:31;;;;;;;11.68;2.17;;;18.20;99.90;;;;;;5033925;28;20032;-71
2022/05/22 10:37:02;;;;;;;20.33;2.45;;;18.60;99.90;;;;;;5034560;28;20102;-71
2022/05/22 10:39:28;;;;;;;9.40;1.80;;;19.00;99.90;;;;;;5033913;28;20024;-71
2022/05/22 10:45:13;;;;;;;14.70;1.83;;;18.30;99.90;;;;;;5034211;28;20417;-71
2022/05/22 10:47:38;;;;;;;13.02;2.47;;;18.40;99.90;;;;;;5033612;28;20104;-71
2022/05/22 10:50:33;;;;;;;11.77;2.00;;;18.60;99.90;;;;;;5034055;28;20532;-71
2022/05/22 10:52:59;;;;;;;8.00;1.65;;;18.10;99.90;;;;;;5021319;28;20037;-71
2022/05/22 10:55:37;;;;;;;7.90;2.00;;;17.70;99.90;;;;;;5034160;28;20386;-71
2022/05/22 10:58:24;;;;;;;8.95;2.45;;;17.50;99.90;;;;;;5033616;28;20028;-71
2022/05/22 11:00:55;;;;;;;7.32;1.63;;;17.80;99.90;;;;;;5033864;28;20021;-71
2022/05/22 11:03:26;;;;;;;5.93;1.67;;;18.30;99.90;;;;;;5033873;28;20013;-71
2022/05/22 11:05:52;;;;;;;7.78;1.80;;;18.80;99.90;;;;;;5033851;28;20021;-71
2022/05/22 11:08:29;;;;;;;10.77;2.90;;;19.10;99.90;;;;;;5033309;28;20037;-71
2022/05/22 11:11:00;;;;;;;12.60;1.85;;;19.40;99.90;;;;;;5033541;28;20022;-71
2022/05/22 11:13:26;;;;;;;10.18;1.55;;;19.60;99.90;;;;;;5033545;28;20026;-71
2022/05/22 11:15:52;;;;;;;11.27;1.85;;;19.30;99.90;;;;;;5033394;28;20017;-71
2022/05/22 11:18:26;;;;;;;8.63;1.58;;;18.60;99.90;;;;;;5033541;28;20070;-71
2022/05/22 11:21:12;;;;;;;14.18;3.13;;;19.10;99.90;;;;;;5033550;28;20478;-71
2022/05/22 11:23:45;;;;;;;9.73;1.95;;;19.50;99.90;;;;;;5033355;28;20032;-71
2022/05/22 11:26:30;;;;;;;;;;;19.50;99.90;;;;;;5034048;28;20025;-71
2022/05/22 11:29:13;;;;;;;9.32;1.50;;;19.30;99.90;;;;;;5033435;28;19947;-71
2022/05/22 11:31:45;;;;;;;;;;;19.40;99.90;;;;;;5033993;28;20021;-71
2022/05/22 11:34:19;;;;;;;13.25;2.70;;;19.70;99.90;;;;;;5033370;28;19905;-71
2022/05/22 11:37:05;;;;;;;;;;;19.80;99.90;;;;;;5033620;28;20474;-71
2022/05/22 11:39:45;;;;;;;10.57;2.15;;;19.70;99.90;;;;;;5032775;28;19947;-71
2022/05/22 11:42:26;;;;;;;9.20;1.83;;;19.60;99.90;;;;;;5033380;28;20167;-71
2022/05/22 11:45:13;;;;;;;10.15;2.13;;;19.60;99.90;;;;;;5033427;28;20470;-71
2022/05/22 11:48:07;;;;;;;6.63;1.90;;;19.30;99.90;;;;;;5033345;28;20072;-71
2022/05/22 11:50:59;;;;;;;12.68;3.22;;;18.70;99.90;;;;;;5033763;28;20029;-71
2022/05/22 11:53:55;;;;;;;10.93;2.55;;;18.70;99.90;;;;;;5010060;28;20073;-71
2022/05/22 11:56:39;;;;;;;15.18;2.55;;;18.50;99.90;;;;;;5033299;28;20151;-71
2022/05/22 11:59:38;;;;;;;11.30;3.00;;;17.70;99.90;;;;;;5032913;28;20036;-71
2022/05/22 12:02:12;;;;;;;14.73;2.47;;;17.30;99.90;;;;;;5036893;28;20033;-71
2022/05/22 12:04:57;;;;;;;15.65;2.65;;;17.20;99.90;;;;;;5037013;28;20018;-71
2022/05/22 12:07:56;;;;;;;8.15;2.30;;;16.80;99.90;;;;;;5036924;28;20025;-71
2022/05/22 12:10:46;;;;;;;14.05;2.85;;;17.10;99.90;;;;;;5037523;28;20049;-70
2022/05/22 12:13:33;;;;;;;12.23;2.13;;;18.00;99.90;;;;;;5037086;28;20030;-70
2022/05/22 12:15:58;;;;;;;7.32;2.25;;;17.90;99.90;;;;;;5037084;28;20075;-69
2022/05/22 12:19:00;;;;;;;14.07;3.05;;;17.20;99.90;;;;;;5036410;28;20100;-69
2022/05/22 12:21:53;;;;;;;13.20;2.92;;;16.70;99.90;;;;;;5036649;28;20021;-69
2022/05/22 12:24:31;;;;;;;12.88;2.42;;;16.40;99.90;;;;;;5037272;28;20035;-70
2022/05/22 12:26:58;;;;;;;12.48;2.78;;;16.20;99.90;;;;;;5037030;28;20030;-70
2022/05/22 12:29:33;;;;;;;8.57;2.35;;;16.10;99.90;;;;;;5036325;28;20034;-70
2022/05/22 12:32:08;;;;;;;10.10;2.30;;;16.20;99.90;;;;;;5036973;28;20116;-70
2022/05/22 12:34:45;;;;;;;17.30;3.40;;;16.20;99.90;;;;;;5036364;28;20045;-70
2022/05/22 12:37:18;;;;;;;15.02;3.08;;;16.30;99.90;;;;;;5036515;28;20039;-70
2022/05/22 12:39:50;;;;;;;14.75;2.50;;;16.80;99.90;;;;;;5036558;28;20112;-70
2022/05/22 12:42:24;;;;;;;9.75;2.47;;;18.10;99.90;;;;;;5036176;28;20145;-70
2022/05/22 12:44:50;;;;;;;8.13;1.73;;;19.30;99.90;;;;;;5036185;28;20529;-70
2022/05/22 12:47:16;;;;;;;14.18;2.45;;;19.40;99.90;;;;;;5036155;28;20064;-70
2022/05/22 12:49:53;;;;;;;8.55;2.20;;;19.50;99.90;;;;;;5036244;28;20022;-70
2022/05/22 12:52:28;;;;;;;10.05;2.67;;;19.30;99.90;;;;;;5036053;28;20393;-70
2022/05/22 12:55:02;;;;;;;11.63;2.60;;;18.60;99.90;;;;;;5036213;28;20052;-70
2022/05/22 12:57:28;;;;;;;15.73;2.65;;;18.60;99.90;;;;;;5018152;28;20036;-70
2022/05/22 13:00:00;;;;;;;13.35;2.53;;;19.30;99.90;;;;;;5035845;28;20025;-70
2022/05/22 13:02:38;;;;;;;14.68;4.22;;;20.10;99.90;;;;;;5035794;28;20025;-70
2022/05/22 13:05:15;;;;;;;10.02;2.58;;;21.00;99.90;;;;;;5036104;28;20041;-70
2022/05/22 13:07:42;;;;;;;8.32;2.20;;;19.90;99.90;;;;;;5035554;28;20079;-70